Aviation Digital Data Service (ADDS)

Output produced by METARs form (0902 UTC 29 March 2017)
found at http://aviationweather.gov/adds/metars/
 
KLBT 290520Z 2906/3006 36008KT P6SM BKN060 
     FM291600 04009KT P6SM FEW250 
     FM300500 09006KT P6SM SCT050